Siirt, Turkey

6:40 AM EEST on September 01, 2016 (GMT +0300)
Batman Air Base | | Change Station

Elev 1821 ft 37.93 °N, 41.12 °E | Updated 20 minutes ago

Clear
Clear
66 °F
Feels Like 66 °F
N
2
Wind Variable Wind from Variable

Today
High -- | Low -- °F
--% Chance of Precip.
Yesterday
High -- | Low -- °F
Precip. -- in
Pressure 29.71 in
Visibility -9999.0 miles
Clouds
Dew Point 50 °F
Humidity 56%
Rainfall 0.00 in
Snow Depth Not available.
5:42 AM 6:41 PM
Waning Crescent, 0% visible
METAR LTCJ 010320Z VRB02KT CAVOK 19/10 Q1006 RMK RWY20 17003KT
Pressure 29.71 in
Visibility -9999.0 miles
Clouds
Dew Point 50 °F
Humidity 56%
Rainfall 0.00 in
Snow Depth Not available.
5:42 AM 6:41 PM
Waning Crescent, 0% visible
METAR LTCJ 010320Z VRB02KT CAVOK 19/10 Q1006 RMK RWY20 17003KT

10-Day Weather Forecast

×

Almanac

Astronomy

Sep. 01, 2016 Rise Set
Actual Time
Civil Twilight
Nautical Twilight
Astronomical Twilight
Moon
Length of Visible Light
Length of Day
Tomorrow will be .
, % of the Moon is Illuminated

Today's Extremes

Country Highs Country Lows

Community

WunderPhotos

Upload Photos

1,936,289 photos uploaded!

WunderBlog® & News

Nearby

Air Quality

  Air Quality AQ Index Pollutant
Not available.

Snow Depth

Station Depth Elevation

Earthquake Activity

City Distance Mag. Time & Date
Minimum magnitude displayed is 2.5.

Coastal Water Temperatures

Place Temperature

Stations

Nearby Weather Stations

Station Location Temp. Windchill Dew Point Humidity Wind Precip. Elev Updated Type